Time;durP1;ratioP1;P1;durP2;ratioP2;P2;SDS_P1;SDS_P2;PMS_P1;PMS_P2;Temp;Humidity;BMP_temperature;BMP_pressure;BME280_temperature;BME280_humidity;BME280_pressure;Samples;Min_cycle;Max_cycle;Signal;HPM_P1;HPM_P2
2022/01/15 00:03:58;;;;;;;42.35;15.77;;;3.60;99.90;;;;;;6702179;88;20253;-74
2022/01/15 00:14:12;;;;;;;47.38;17.27;;;3.60;99.90;;;;;;6716980;88;20189;-75
2022/01/15 00:24:15;;;;;;;37.35;13.48;;;3.50;99.90;;;;;;6699596;88;20236;-75
2022/01/15 00:34:15;;;;;;;45.38;16.17;;;3.40;99.90;;;;;;6699420;88;20213;-76
2022/01/15 00:44:16;;;;;;;45.65;16.40;;;3.30;99.90;;;;;;6697541;88;20825;-75
2022/01/15 00:54:17;;;;;;;42.35;14.75;;;3.50;99.90;;;;;;6714337;88;20693;-74
2022/01/15 01:04:17;;;;;;;45.45;15.73;;;3.50;99.90;;;;;;6716280;88;20288;-74
2022/01/15 01:24:37;;;;;;;38.33;14.25;;;3.50;99.90;;;;;;6702526;88;20186;-75
2022/01/15 01:34:41;;;;;;;31.43;12.17;;;3.50;99.90;;;;;;6703523;88;20301;-75
2022/01/15 01:45:07;;;;;;;27.50;11.63;;;3.30;99.90;;;;;;6712029;88;20507;-74
2022/01/15 01:55:09;;;;;;;33.22;12.15;;;3.10;99.90;;;;;;6713546;88;20709;-74
2022/01/15 02:05:10;;;;;;;29.98;11.60;;;2.70;99.90;;;;;;6700752;88;20704;-75
2022/01/15 02:15:15;;;;;;;32.45;12.75;;;2.60;99.90;;;;;;6700160;88;20204;-74
2022/01/15 02:25:16;;;;;;;34.33;11.95;;;2.60;99.90;;;;;;6705073;88;20247;-74
2022/01/15 02:35:16;;;;;;;28.05;10.88;;;2.40;99.90;;;;;;6718766;88;20243;-75
2022/01/15 02:45:22;;;;;;;33.80;12.05;;;2.40;99.90;;;;;;6717962;88;20535;-74
2022/01/15 02:55:22;;;;;;;35.55;13.02;;;2.30;99.90;;;;;;6717987;88;20192;-74
2022/01/15 03:05:23;;;;;;;28.23;10.55;;;2.20;99.90;;;;;;6718288;88;20218;-74
2022/01/15 03:15:23;;;;;;;29.15;11.70;;;2.30;99.90;;;;;;6717140;88;20214;-75
2022/01/15 03:25:24;;;;;;;23.48;9.52;;;2.40;99.90;;;;;;6719228;88;20545;-75
2022/01/15 03:35:25;;;;;;;23.38;9.52;;;2.20;99.90;;;;;;6706664;88;21173;-74
2022/01/15 03:45:26;;;;;;;20.35;8.15;;;2.20;99.90;;;;;;6708913;88;20317;-74
2022/01/15 03:55:27;;;;;;;22.37;8.60;;;1.90;99.90;;;;;;6707167;88;20205;-75
2022/01/15 04:05:28;;;;;;;22.62;7.53;;;1.60;99.90;;;;;;6704900;88;20214;-74
2022/01/15 04:15:28;;;;;;;17.67;7.37;;;1.40;99.90;;;;;;6710218;88;20272;-75
2022/01/15 04:25:29;;;;;;;23.42;9.20;;;1.40;99.90;;;;;;6706605;88;20624;-74
2022/01/15 04:35:29;;;;;;;20.05;8.10;;;1.40;99.90;;;;;;6711195;88;20193;-75
2022/01/15 04:46:11;;;;;;;23.38;8.52;;;1.40;99.90;;;;;;6716142;77;20823;-78
2022/01/15 04:56:11;;;;;;;30.20;7.37;;;1.40;99.90;;;;;;6696384;88;20289;-77
2022/01/15 05:06:12;;;;;;;20.27;8.52;;;1.40;99.90;;;;;;6699174;88;20181;-75
2022/01/15 05:16:13;;;;;;;19.00;8.60;;;1.40;99.90;;;;;;6691018;88;20218;-75
2022/01/15 05:26:13;;;;;;;21.83;8.35;;;1.50;99.90;;;;;;6693593;88;20230;-75
2022/01/15 05:36:14;;;;;;;17.58;7.25;;;1.40;99.90;;;;;;6699418;88;20200;-75
2022/01/15 05:46:14;;;;;;;19.43;7.40;;;1.40;99.90;;;;;;6708657;88;20324;-75
2022/01/15 05:56:15;;;;;;;16.45;8.32;;;1.40;99.90;;;;;;6703436;88;20492;-75
2022/01/15 06:06:15;;;;;;;14.00;6.55;;;1.30;99.90;;;;;;6702294;88;20189;-76
2022/01/15 06:16:16;;;;;;;16.75;8.45;;;1.30;99.90;;;;;;6723856;88;20605;-75
2022/01/15 06:26:17;;;;;;;18.17;7.72;;;1.20;99.90;;;;;;6695308;88;20202;-76
2022/01/15 06:36:17;;;;;;;22.13;8.88;;;1.30;99.90;;;;;;6698922;88;20581;-76
2022/01/15 06:46:18;;;;;;;18.30;6.87;;;1.40;99.90;;;;;;6698235;88;20323;-76
2022/01/15 06:56:18;;;;;;;15.10;6.95;;;1.30;99.90;;;;;;6698981;88;20190;-76
2022/01/15 07:06:19;;;;;;;16.30;6.70;;;1.30;99.90;;;;;;6698227;88;20202;-75
2022/01/15 07:16:19;;;;;;;12.88;6.07;;;1.40;99.90;;;;;;6697550;88;20174;-76
2022/01/15 07:26:20;;;;;;;11.30;5.18;;;1.30;99.90;;;;;;6689083;88;20970;-75
2022/01/15 07:36:21;;;;;;;13.27;5.80;;;1.40;99.90;;;;;;6684148;88;20217;-76
2022/01/15 07:46:21;;;;;;;15.85;7.78;;;1.40;99.90;;;;;;6696607;88;20202;-76
2022/01/15 07:56:22;;;;;;;13.65;6.35;;;1.50;99.90;;;;;;6698001;88;20194;-77
2022/01/15 08:06:23;;;;;;;17.37;8.27;;;1.50;99.90;;;;;;6704384;88;20201;-75
2022/01/15 08:16:23;;;;;;;16.90;7.32;;;1.60;99.90;;;;;;6691319;88;20673;-76
2022/01/15 08:26:24;;;;;;;13.70;7.50;;;1.50;99.90;;;;;;6685406;88;20343;-77
2022/01/15 08:36:25;;;;;;;12.13;6.15;;;1.50;99.90;;;;;;6680564;88;20213;-77
2022/01/15 08:46:26;;;;;;;7.10;3.72;;;1.60;99.90;;;;;;6682685;88;20309;-77
2022/01/15 08:56:26;;;;;;;14.30;6.68;;;1.50;99.90;;;;;;6691114;88;20232;-77
2022/01/15 09:06:27;;;;;;;9.95;5.20;;;1.50;99.90;;;;;;6699139;88;20311;-78
2022/01/15 09:16:28;;;;;;;7.57;3.85;;;1.60;99.90;;;;;;6700292;88;20624;-78
2022/01/15 09:36:47;;;;;;;9.07;4.87;;;1.80;99.90;;;;;;6683507;88;20210;-78
2022/01/15 09:46:49;;;;;;;13.98;6.37;;;1.70;99.90;;;;;;6690652;88;20325;-74
2022/01/15 09:56:50;;;;;;;17.55;8.20;;;1.80;99.90;;;;;;6695872;88;20232;-77
2022/01/15 10:07:22;;;;;;;12.13;5.95;;;1.70;99.90;;;;;;6702635;88;21020;-76
2022/01/15 10:17:28;;;;;;;15.05;8.02;;;1.90;99.90;;;;;;6715189;88;20225;-77
2022/01/15 10:27:32;;;;;;;12.98;6.70;;;1.90;99.90;;;;;;6702789;88;20951;-78
2022/01/15 10:47:47;;;;;;;8.80;4.32;;;2.10;99.90;;;;;;6760355;88;20181;-76
2022/01/15 10:57:56;;;;;;;15.88;7.87;;;2.10;99.90;;;;;;6754512;88;20629;-75
2022/01/15 11:08:06;;;;;;;12.18;6.80;;;2.20;99.90;;;;;;6756476;88;20267;-75
2022/01/15 11:18:10;;;;;;;14.18;6.90;;;2.30;99.90;;;;;;6756185;88;20187;-75
2022/01/15 11:28:12;;;;;;;14.35;7.30;;;2.20;99.90;;;;;;6754485;88;20192;-75
2022/01/15 11:38:34;;;;;;;12.30;6.72;;;2.30;99.90;;;;;;6761496;87;20709;-75
2022/01/15 11:48:35;;;;;;;11.35;5.20;;;2.40;99.90;;;;;;6757065;88;20205;-75
2022/01/15 11:58:35;;;;;;;8.52;4.00;;;2.50;99.90;;;;;;6756891;88;20222;-75
2022/01/15 12:08:36;;;;;;;8.40;4.37;;;2.50;99.90;;;;;;6757277;88;20216;-76
2022/01/15 12:18:48;;;;;;;12.45;6.57;;;2.40;99.90;;;;;;6756560;88;20625;-75
2022/01/15 12:28:48;;;;;;;7.62;3.28;;;2.40;99.90;;;;;;6753986;88;20746;-75
2022/01/15 12:38:51;;;;;;;13.93;6.68;;;2.50;99.90;;;;;;6751873;87;20184;-76
2022/01/15 12:48:51;;;;;;;11.10;6.03;;;2.50;99.90;;;;;;6757874;88;20583;-74
2022/01/15 12:58:54;;;;;;;11.48;5.85;;;2.60;99.90;;;;;;6762041;88;20196;-75
2022/01/15 13:08:59;;;;;;;12.40;6.78;;;2.70;99.90;;;;;;6757334;88;20904;-74
2022/01/15 13:19:03;;;;;;;11.15;6.20;;;2.60;99.90;;;;;;6756783;88;20688;-76
2022/01/15 13:29:11;;;;;;;10.20;5.60;;;2.70;99.90;;;;;;6762734;88;20177;-76
2022/01/15 13:39:14;;;;;;;10.98;6.30;;;2.90;99.90;;;;;;6768232;88;20993;-76
2022/01/15 13:49:17;;;;;;;10.68;5.65;;;2.80;99.90;;;;;;6759242;88;20194;-76
2022/01/15 13:59:19;;;;;;;12.15;6.70;;;2.80;99.90;;;;;;6764231;88;20224;-78
2022/01/15 14:09:20;;;;;;;10.93;5.43;;;2.90;99.90;;;;;;6764021;88;20214;-76
2022/01/15 14:19:40;;;;;;;11.25;6.25;;;2.60;99.90;;;;;;6763511;88;20242;-76
2022/01/15 14:29:40;;;;;;;8.23;4.80;;;2.60;99.90;;;;;;6764423;88;20299;-77
2022/01/15 14:39:42;;;;;;;12.50;6.75;;;2.60;99.90;;;;;;6764299;88;20187;-76
2022/01/15 14:49:43;;;;;;;13.20;5.22;;;2.50;99.90;;;;;;6763709;88;20495;-79
2022/01/15 14:59:43;;;;;;;10.25;5.60;;;2.50;99.90;;;;;;6764654;88;20724;-76
2022/01/15 15:09:44;;;;;;;10.80;5.75;;;2.60;99.90;;;;;;6762453;88;20232;-75
2022/01/15 15:19:46;;;;;;;7.90;3.87;;;2.30;99.90;;;;;;6757651;88;20187;-76
2022/01/15 15:29:47;;;;;;;15.35;7.05;;;2.20;99.90;;;;;;6768182;87;20296;-77
2022/01/15 15:39:48;;;;;;;12.68;5.90;;;2.30;99.90;;;;;;6767112;88;20175;-77
2022/01/15 15:49:48;;;;;;;12.37;6.27;;;2.30;99.90;;;;;;6766102;88;20188;-77
2022/01/15 15:59:51;;;;;;;15.90;7.72;;;2.30;99.90;;;;;;6764592;88;20513;-75
2022/01/15 16:09:52;;;;;;;15.57;7.00;;;2.30;99.90;;;;;;6759669;88;20185;-77
2022/01/15 16:19:53;;;;;;;19.60;9.95;;;2.10;99.90;;;;;;6751620;88;20260;-78
2022/01/15 16:29:53;;;;;;;10.63;4.97;;;2.00;99.90;;;;;;6759403;88;20203;-78
2022/01/15 16:39:54;;;;;;;17.98;9.10;;;2.00;99.90;;;;;;6760061;88;20184;-80
2022/01/15 16:49:55;;;;;;;16.73;7.93;;;2.00;99.90;;;;;;6761399;88;20200;-79
2022/01/15 16:59:55;;;;;;;20.30;8.80;;;2.00;99.90;;;;;;6756241;88;21058;-78
2022/01/15 17:09:56;;;;;;;21.60;10.70;;;2.10;99.90;;;;;;6767104;88;20203;-78
2022/01/15 17:19:56;;;;;;;19.00;8.68;;;2.20;99.90;;;;;;6770625;88;20227;-78
2022/01/15 17:29:57;;;;;;;22.17;9.73;;;2.20;99.90;;;;;;6770224;88;20232;-78
2022/01/15 17:39:57;;;;;;;21.83;9.60;;;2.20;99.90;;;;;;6762750;88;20306;-77
2022/01/15 17:49:58;;;;;;;18.37;7.78;;;2.20;99.90;;;;;;6761955;88;20195;-77
2022/01/15 17:59:58;;;;;;;20.58;8.95;;;2.10;99.90;;;;;;6759620;88;20200;-76
2022/01/15 18:10:02;;;;;;;22.92;9.45;;;2.20;99.90;;;;;;6765831;88;20224;-76
2022/01/15 18:20:05;;;;;;;25.27;12.02;;;2.20;99.90;;;;;;6768866;88;20189;-77
2022/01/15 18:30:08;;;;;;;27.58;11.20;;;2.10;99.90;;;;;;6775309;87;20187;-79
2022/01/15 18:40:09;;;;;;;15.73;7.22;;;2.10;99.90;;;;;;6769908;87;20695;-75
2022/01/15 18:50:12;;;;;;;20.92;10.45;;;2.30;99.90;;;;;;6763533;88;20311;-76
2022/01/15 19:00:17;;;;;;;24.75;10.57;;;2.20;99.90;;;;;;6763369;87;20774;-77
2022/01/15 19:10:17;;;;;;;25.98;11.57;;;2.20;99.90;;;;;;6759737;87;20264;-76
2022/01/15 19:20:19;;;;;;;18.75;7.50;;;2.10;99.90;;;;;;6766111;88;20180;-77
2022/01/15 19:30:21;;;;;;;22.98;10.30;;;2.20;99.90;;;;;;6767832;88;20502;-80
2022/01/15 19:40:24;;;;;;;18.37;7.28;;;2.10;99.90;;;;;;6770387;88;20191;-76
2022/01/15 19:50:25;;;;;;;18.12;8.02;;;2.10;99.90;;;;;;6774053;88;20983;-77
2022/01/15 20:00:29;;;;;;;20.73;8.50;;;2.00;99.90;;;;;;6768516;88;20196;-77
2022/01/15 20:10:31;;;;;;;16.52;7.72;;;2.10;99.90;;;;;;6767458;87;20201;-77
2022/01/15 20:20:31;;;;;;;20.65;10.27;;;2.10;99.90;;;;;;6772319;88;20617;-77
2022/01/15 20:30:32;;;;;;;17.87;8.63;;;2.10;99.90;;;;;;6763138;88;20351;-76
2022/01/15 20:40:33;;;;;;;14.90;6.85;;;2.10;99.90;;;;;;6772202;88;20189;-76
2022/01/15 20:50:34;;;;;;;20.35;9.57;;;2.10;99.90;;;;;;6767799;88;20180;-77
2022/01/15 21:00:36;;;;;;;25.45;12.65;;;2.20;99.90;;;;;;6768028;88;20695;-76
2022/01/15 21:10:36;;;;;;;24.48;11.80;;;2.20;99.90;;;;;;6774336;88;20652;-78
2022/01/15 21:20:38;;;;;;;21.70;9.93;;;2.20;99.90;;;;;;6765968;88;20217;-79
2022/01/15 21:30:38;;;;;;;23.23;11.93;;;2.30;99.90;;;;;;6763682;88;20198;-79
2022/01/15 21:40:39;;;;;;;22.02;9.93;;;2.30;99.90;;;;;;6762970;88;20172;-77
2022/01/15 21:50:40;;;;;;;18.50;7.70;;;2.40;99.90;;;;;;6768220;88;20226;-77
2022/01/15 22:00:41;;;;;;;17.90;8.70;;;2.10;99.90;;;;;;6768253;88;20185;-77
2022/01/15 22:10:42;;;;;;;18.55;8.50;;;2.10;99.90;;;;;;6765250;88;20185;-77
2022/01/15 22:20:43;;;;;;;20.27;9.07;;;2.10;99.90;;;;;;6775990;88;20196;-78
2022/01/15 22:30:44;;;;;;;18.60;8.23;;;2.10;99.90;;;;;;6771683;88;20287;-79
2022/01/15 22:40:48;;;;;;;23.83;10.98;;;2.20;99.90;;;;;;6768831;77;20196;-77
2022/01/15 22:50:49;;;;;;;14.40;7.05;;;2.30;99.90;;;;;;6761902;87;20187;-76
2022/01/15 23:00:56;;;;;;;23.87;9.88;;;2.10;99.90;;;;;;6765539;87;20269;-77
2022/01/15 23:11:04;;;;;;;18.05;7.62;;;2.20;99.90;;;;;;6773963;87;20268;-77
2022/01/15 23:21:05;;;;;;;17.52;7.20;;;2.20;99.90;;;;;;6765456;87;20244;-76
2022/01/15 23:31:05;;;;;;;15.63;6.30;;;2.10;99.90;;;;;;6771538;87;20183;-77
2022/01/15 23:41:06;;;;;;;20.20;8.50;;;2.10;99.90;;;;;;6771547;87;20218;-75
2022/01/15 23:51:09;;;;;;;13.45;5.87;;;2.10;99.90;;;;;;6757262;87;20188;-77
